sensor_id;sensor_type;location;lat;lon;timestamp;P1;durP1;ratioP1;P2;durP2;ratioP2
55539;SDS011;41384;51.418;7.286;2023-02-28T00:00:24;6.03;;;4.00;;
55539;SDS011;41384;51.418;7.286;2023-02-28T00:02:50;5.40;;;4.18;;
55539;SDS011;41384;51.418;7.286;2023-02-28T00:05:17;8.32;;;4.20;;
55539;SDS011;41384;51.418;7.286;2023-02-28T00:07:44;8.60;;;3.65;;
55539;SDS011;41384;51.418;7.286;2023-02-28T00:10:10;6.68;;;3.80;;
55539;SDS011;41384;51.418;7.286;2023-02-28T00:12:37;5.43;;;3.70;;
55539;SDS011;41384;51.418;7.286;2023-02-28T00:15:07;5.85;;;4.00;;
55539;SDS011;41384;51.418;7.286;2023-02-28T00:17:34;5.32;;;3.75;;
55539;SDS011;41384;51.418;7.286;2023-02-28T00:19:59;6.18;;;3.58;;
55539;SDS011;41384;51.418;7.286;2023-02-28T00:22:28;5.18;;;3.45;;
55539;SDS011;41384;51.418;7.286;2023-02-28T00:24:53;8.57;;;3.38;;
55539;SDS011;41384;51.418;7.286;2023-02-28T00:27:19;4.63;;;3.55;;
55539;SDS011;41384;51.418;7.286;2023-02-28T00:29:45;5.85;;;3.67;;
55539;SDS011;41384;51.418;7.286;2023-02-28T00:32:11;7.03;;;3.60;;
55539;SDS011;41384;51.418;7.286;2023-02-28T00:34:36;5.20;;;3.63;;
55539;SDS011;41384;51.418;7.286;2023-02-28T00:37:03;6.82;;;4.03;;
55539;SDS011;41384;51.418;7.286;2023-02-28T00:39:30;5.80;;;3.55;;
55539;SDS011;41384;51.418;7.286;2023-02-28T00:41:55;5.40;;;3.53;;
55539;SDS011;41384;51.418;7.286;2023-02-28T00:44:21;6.30;;;3.53;;
55539;SDS011;41384;51.418;7.286;2023-02-28T00:46:46;6.80;;;3.55;;
55539;SDS011;41384;51.418;7.286;2023-02-28T00:49:11;6.55;;;3.83;;
55539;SDS011;41384;51.418;7.286;2023-02-28T00:51:36;5.75;;;3.75;;
55539;SDS011;41384;51.418;7.286;2023-02-28T00:54:02;6.03;;;3.78;;
55539;SDS011;41384;51.418;7.286;2023-02-28T00:56:27;8.48;;;4.20;;
55539;SDS011;41384;51.418;7.286;2023-02-28T00:58:53;7.25;;;2.97;;
55539;SDS011;41384;51.418;7.286;2023-02-28T01:01:18;7.15;;;3.58;;
55539;SDS011;41384;51.418;7.286;2023-02-28T01:03:43;10.85;;;3.55;;
55539;SDS011;41384;51.418;7.286;2023-02-28T01:06:08;8.43;;;4.65;;
55539;SDS011;41384;51.418;7.286;2023-02-28T01:08:34;6.03;;;3.40;;
55539;SDS011;41384;51.418;7.286;2023-02-28T01:11:06;8.55;;;3.60;;
55539;SDS011;41384;51.418;7.286;2023-02-28T01:13:32;6.13;;;3.88;;
55539;SDS011;41384;51.418;7.286;2023-02-28T01:15:57;6.45;;;3.90;;
55539;SDS011;41384;51.418;7.286;2023-02-28T01:18:23;6.85;;;4.03;;
55539;SDS011;41384;51.418;7.286;2023-02-28T01:20:49;8.02;;;3.80;;
55539;SDS011;41384;51.418;7.286;2023-02-28T01:23:16;5.88;;;4.40;;
55539;SDS011;41384;51.418;7.286;2023-02-28T01:25:41;6.80;;;3.88;;
55539;SDS011;41384;51.418;7.286;2023-02-28T01:28:07;8.93;;;4.60;;
55539;SDS011;41384;51.418;7.286;2023-02-28T01:30:32;8.05;;;4.88;;
55539;SDS011;41384;51.418;7.286;2023-02-28T01:32:58;5.57;;;3.90;;
55539;SDS011;41384;51.418;7.286;2023-02-28T01:35:23;6.25;;;4.20;;
55539;SDS011;41384;51.418;7.286;2023-02-28T01:37:48;7.95;;;4.85;;
55539;SDS011;41384;51.418;7.286;2023-02-28T01:40:14;10.48;;;4.80;;
55539;SDS011;41384;51.418;7.286;2023-02-28T01:42:39;7.32;;;4.57;;
55539;SDS011;41384;51.418;7.286;2023-02-28T01:47:50;6.78;;;4.05;;
55539;SDS011;41384;51.418;7.286;2023-02-28T01:50:19;7.93;;;3.97;;
55539;SDS011;41384;51.418;7.286;2023-02-28T01:52:49;7.90;;;3.80;;
55539;SDS011;41384;51.418;7.286;2023-02-28T01:55:17;6.00;;;3.67;;
55539;SDS011;41384;51.418;7.286;2023-02-28T01:57:46;7.35;;;3.80;;
55539;SDS011;41384;51.418;7.286;2023-02-28T02:00:16;6.18;;;3.50;;
55539;SDS011;41384;51.418;7.286;2023-02-28T02:02:46;8.73;;;4.28;;
55539;SDS011;41384;51.418;7.286;2023-02-28T02:07:46;5.47;;;3.30;;
55539;SDS011;41384;51.418;7.286;2023-02-28T02:10:16;9.85;;;4.15;;
55539;SDS011;41384;51.418;7.286;2023-02-28T02:12:56;8.13;;;3.30;;
55539;SDS011;41384;51.418;7.286;2023-02-28T02:18:26;10.85;;;4.25;;
55539;SDS011;41384;51.418;7.286;2023-02-28T02:27:10;8.30;;;4.10;;
55539;SDS011;41384;51.418;7.286;2023-02-28T02:44:50;7.97;;;4.53;;
55539;SDS011;41384;51.418;7.286;2023-02-28T02:47:01;6.82;;;4.10;;
55539;SDS011;41384;51.418;7.286;2023-02-28T02:49:32;7.18;;;4.55;;
55539;SDS011;41384;51.418;7.286;2023-02-28T02:52:01;6.20;;;3.67;;
55539;SDS011;41384;51.418;7.286;2023-02-28T02:54:31;5.93;;;3.80;;
55539;SDS011;41384;51.418;7.286;2023-02-28T02:57:01;8.68;;;4.10;;
55539;SDS011;41384;51.418;7.286;2023-02-28T02:59:30;9.27;;;4.53;;
55539;SDS011;41384;51.418;7.286;2023-02-28T03:01:57;10.25;;;5.05;;
55539;SDS011;41384;51.418;7.286;2023-02-28T03:04:27;10.27;;;4.68;;
55539;SDS011;41384;51.418;7.286;2023-02-28T03:06:57;7.32;;;4.78;;
55539;SDS011;41384;51.418;7.286;2023-02-28T03:09:23;10.18;;;4.32;;
55539;SDS011;41384;51.418;7.286;2023-02-28T03:11:50;6.40;;;3.78;;
55539;SDS011;41384;51.418;7.286;2023-02-28T03:17:20;6.15;;;3.38;;
55539;SDS011;41384;51.418;7.286;2023-02-28T03:22:51;5.13;;;3.25;;
55539;SDS011;41384;51.418;7.286;2023-02-28T03:25:27;5.43;;;2.92;;
55539;SDS011;41384;51.418;7.286;2023-02-28T03:28:18;6.28;;;3.63;;
55539;SDS011;41384;51.418;7.286;2023-02-28T03:31:01;4.82;;;3.13;;
55539;SDS011;41384;51.418;7.286;2023-02-28T03:33:38;5.68;;;3.25;;
55539;SDS011;41384;51.418;7.286;2023-02-28T03:36:15;5.50;;;3.47;;
55539;SDS011;41384;51.418;7.286;2023-02-28T03:38:48;5.15;;;3.17;;
55539;SDS011;41384;51.418;7.286;2023-02-28T03:41:21;7.35;;;3.40;;
55539;SDS011;41384;51.418;7.286;2023-02-28T03:43:50;8.00;;;3.30;;
55539;SDS011;41384;51.418;7.286;2023-02-28T03:46:19;4.75;;;3.30;;
55539;SDS011;41384;51.418;7.286;2023-02-28T03:48:51;6.85;;;3.53;;
55539;SDS011;41384;51.418;7.286;2023-02-28T03:51:22;4.68;;;3.03;;
55539;SDS011;41384;51.418;7.286;2023-02-28T03:53:56;6.80;;;3.00;;
55539;SDS011;41384;51.418;7.286;2023-02-28T03:56:29;6.47;;;3.63;;
55539;SDS011;41384;51.418;7.286;2023-02-28T03:59:32;4.82;;;3.03;;
55539;SDS011;41384;51.418;7.286;2023-02-28T04:02:01;3.97;;;2.63;;
55539;SDS011;41384;51.418;7.286;2023-02-28T04:04:27;6.22;;;3.13;;
55539;SDS011;41384;51.418;7.286;2023-02-28T04:06:53;4.47;;;3.08;;
55539;SDS011;41384;51.418;7.286;2023-02-28T04:09:30;7.18;;;3.30;;
55539;SDS011;41384;51.418;7.286;2023-02-28T04:11:56;8.00;;;3.92;;
55539;SDS011;41384;51.418;7.286;2023-02-28T04:14:21;5.10;;;3.10;;
55539;SDS011;41384;51.418;7.286;2023-02-28T04:16:47;7.53;;;3.80;;
55539;SDS011;41384;51.418;7.286;2023-02-28T04:19:13;7.63;;;3.35;;
55539;SDS011;41384;51.418;7.286;2023-02-28T04:24:04;5.78;;;3.88;;
55539;SDS011;41384;51.418;7.286;2023-02-28T04:26:34;8.10;;;4.50;;
55539;SDS011;41384;51.418;7.286;2023-02-28T04:29:01;7.55;;;4.28;;
55539;SDS011;41384;51.418;7.286;2023-02-28T04:31:28;8.52;;;4.75;;
55539;SDS011;41384;51.418;7.286;2023-02-28T04:33:53;8.52;;;4.82;;
55539;SDS011;41384;51.418;7.286;2023-02-28T04:36:18;14.55;;;4.78;;
55539;SDS011;41384;51.418;7.286;2023-02-28T04:38:44;6.72;;;3.83;;
55539;SDS011;41384;51.418;7.286;2023-02-28T04:41:11;7.95;;;3.88;;
55539;SDS011;41384;51.418;7.286;2023-02-28T04:43:37;7.75;;;3.97;;
55539;SDS011;41384;51.418;7.286;2023-02-28T04:46:03;7.15;;;4.03;;
55539;SDS011;41384;51.418;7.286;2023-02-28T04:48:30;6.55;;;4.10;;
55539;SDS011;41384;51.418;7.286;2023-02-28T04:51:01;7.65;;;3.75;;
55539;SDS011;41384;51.418;7.286;2023-02-28T04:53:28;5.68;;;3.42;;
55539;SDS011;41384;51.418;7.286;2023-02-28T04:55:54;6.18;;;3.50;;
55539;SDS011;41384;51.418;7.286;2023-02-28T04:58:20;5.22;;;3.35;;
55539;SDS011;41384;51.418;7.286;2023-02-28T05:00:47;4.18;;;2.63;;
55539;SDS011;41384;51.418;7.286;2023-02-28T05:03:13;3.83;;;3.33;;
55539;SDS011;41384;51.418;7.286;2023-02-28T05:05:38;6.18;;;3.30;;
55539;SDS011;41384;51.418;7.286;2023-02-28T05:08:03;4.63;;;3.10;;
55539;SDS011;41384;51.418;7.286;2023-02-28T05:10:30;4.38;;;3.20;;
55539;SDS011;41384;51.418;7.286;2023-02-28T05:12:55;6.85;;;3.65;;
55539;SDS011;41384;51.418;7.286;2023-02-28T05:15:20;5.55;;;3.25;;
55539;SDS011;41384;51.418;7.286;2023-02-28T05:17:46;8.65;;;3.83;;
55539;SDS011;41384;51.418;7.286;2023-02-28T05:20:11;6.13;;;3.97;;
55539;SDS011;41384;51.418;7.286;2023-02-28T05:22:38;6.53;;;3.63;;
55539;SDS011;41384;51.418;7.286;2023-02-28T05:25:03;6.32;;;3.80;;
55539;SDS011;41384;51.418;7.286;2023-02-28T05:27:30;5.85;;;4.40;;
55539;SDS011;41384;51.418;7.286;2023-02-28T05:29:55;7.75;;;4.32;;
55539;SDS011;41384;51.418;7.286;2023-02-28T05:32:21;5.70;;;3.83;;
55539;SDS011;41384;51.418;7.286;2023-02-28T05:34:46;9.38;;;4.40;;
55539;SDS011;41384;51.418;7.286;2023-02-28T05:37:12;9.57;;;3.97;;
55539;SDS011;41384;51.418;7.286;2023-02-28T05:39:38;5.78;;;3.78;;
55539;SDS011;41384;51.418;7.286;2023-02-28T05:42:03;5.05;;;3.47;;
55539;SDS011;41384;51.418;7.286;2023-02-28T05:44:29;7.70;;;3.63;;
55539;SDS011;41384;51.418;7.286;2023-02-28T05:46:54;8.40;;;4.03;;
55539;SDS011;41384;51.418;7.286;2023-02-28T05:49:20;6.47;;;3.85;;
55539;SDS011;41384;51.418;7.286;2023-02-28T05:51:45;5.68;;;3.83;;
55539;SDS011;41384;51.418;7.286;2023-02-28T05:54:10;7.50;;;4.07;;
55539;SDS011;41384;51.418;7.286;2023-02-28T05:56:35;7.32;;;4.13;;
55539;SDS011;41384;51.418;7.286;2023-02-28T05:59:03;7.05;;;3.88;;
55539;SDS011;41384;51.418;7.286;2023-02-28T06:01:33;6.68;;;3.38;;
55539;SDS011;41384;51.418;7.286;2023-02-28T06:04:04;7.50;;;3.90;;
55539;SDS011;41384;51.418;7.286;2023-02-28T06:06:30;7.38;;;3.53;;
55539;SDS011;41384;51.418;7.286;2023-02-28T06:08:56;7.03;;;3.63;;
55539;SDS011;41384;51.418;7.286;2023-02-28T06:11:22;7.63;;;4.70;;
55539;SDS011;41384;51.418;7.286;2023-02-28T06:13:53;11.15;;;5.13;;
55539;SDS011;41384;51.418;7.286;2023-02-28T06:16:20;8.40;;;5.20;;
55539;SDS011;41384;51.418;7.286;2023-02-28T06:18:45;5.55;;;4.55;;
55539;SDS011;41384;51.418;7.286;2023-02-28T06:21:11;10.30;;;5.47;;
55539;SDS011;41384;51.418;7.286;2023-02-28T06:23:37;7.60;;;5.60;;
55539;SDS011;41384;51.418;7.286;2023-02-28T06:26:03;11.18;;;5.13;;
55539;SDS011;41384;51.418;7.286;2023-02-28T06:28:28;6.93;;;4.03;;
55539;SDS011;41384;51.418;7.286;2023-02-28T06:30:53;6.95;;;4.28;;
55539;SDS011;41384;51.418;7.286;2023-02-28T06:33:19;14.15;;;4.68;;
55539;SDS011;41384;51.418;7.286;2023-02-28T06:35:44;8.38;;;4.80;;
55539;SDS011;41384;51.418;7.286;2023-02-28T06:38:11;7.90;;;4.40;;
55539;SDS011;41384;51.418;7.286;2023-02-28T06:40:37;8.68;;;4.55;;
55539;SDS011;41384;51.418;7.286;2023-02-28T06:43:02;7.80;;;4.60;;
55539;SDS011;41384;51.418;7.286;2023-02-28T06:45:28;7.78;;;4.35;;
55539;SDS011;41384;51.418;7.286;2023-02-28T06:47:53;9.52;;;4.53;;
55539;SDS011;41384;51.418;7.286;2023-02-28T06:50:18;6.13;;;4.55;;
55539;SDS011;41384;51.418;7.286;2023-02-28T06:52:45;12.55;;;4.28;;
55539;SDS011;41384;51.418;7.286;2023-02-28T06:55:11;7.00;;;4.55;;
55539;SDS011;41384;51.418;7.286;2023-02-28T06:57:36;7.95;;;4.80;;
55539;SDS011;41384;51.418;7.286;2023-02-28T07:00:06;7.35;;;4.60;;
55539;SDS011;41384;51.418;7.286;2023-02-28T07:02:34;10.77;;;5.55;;
55539;SDS011;41384;51.418;7.286;2023-02-28T07:05:00;13.13;;;5.80;;
55539;SDS011;41384;51.418;7.286;2023-02-28T07:07:25;6.78;;;4.60;;
55539;SDS011;41384;51.418;7.286;2023-02-28T07:09:50;9.98;;;4.65;;
55539;SDS011;41384;51.418;7.286;2023-02-28T07:12:16;11.45;;;4.93;;
55539;SDS011;41384;51.418;7.286;2023-02-28T07:14:41;6.88;;;4.50;;
55539;SDS011;41384;51.418;7.286;2023-02-28T07:17:07;9.77;;;4.78;;
55539;SDS011;41384;51.418;7.286;2023-02-28T07:19:33;5.57;;;4.57;;
55539;SDS011;41384;51.418;7.286;2023-02-28T07:21:58;13.07;;;4.93;;
55539;SDS011;41384;51.418;7.286;2023-02-28T07:24:24;10.23;;;4.57;;
55539;SDS011;41384;51.418;7.286;2023-02-28T07:26:53;9.25;;;4.38;;
55539;SDS011;41384;51.418;7.286;2023-02-28T07:29:18;6.65;;;4.32;;
55539;SDS011;41384;51.418;7.286;2023-02-28T07:31:43;8.45;;;4.00;;
55539;SDS011;41384;51.418;7.286;2023-02-28T07:34:08;6.97;;;3.97;;
55539;SDS011;41384;51.418;7.286;2023-02-28T07:36:34;9.98;;;4.80;;
55539;SDS011;41384;51.418;7.286;2023-02-28T07:38:59;5.53;;;4.32;;
55539;SDS011;41384;51.418;7.286;2023-02-28T07:41:24;9.32;;;4.35;;
55539;SDS011;41384;51.418;7.286;2023-02-28T07:43:53;12.38;;;4.70;;
55539;SDS011;41384;51.418;7.286;2023-02-28T07:46:20;7.30;;;4.07;;
55539;SDS011;41384;51.418;7.286;2023-02-28T07:48:46;6.95;;;4.18;;
55539;SDS011;41384;51.418;7.286;2023-02-28T07:51:11;7.60;;;4.20;;
55539;SDS011;41384;51.418;7.286;2023-02-28T07:53:37;8.55;;;3.45;;
55539;SDS011;41384;51.418;7.286;2023-02-28T07:56:02;6.93;;;3.92;;
55539;SDS011;41384;51.418;7.286;2023-02-28T07:58:28;6.97;;;4.25;;
55539;SDS011;41384;51.418;7.286;2023-02-28T08:00:54;7.75;;;4.70;;
55539;SDS011;41384;51.418;7.286;2023-02-28T08:03:20;8.25;;;4.38;;
55539;SDS011;41384;51.418;7.286;2023-02-28T08:05:47;11.35;;;4.97;;
55539;SDS011;41384;51.418;7.286;2023-02-28T08:08:13;7.80;;;5.07;;
55539;SDS011;41384;51.418;7.286;2023-02-28T08:10:40;9.95;;;4.30;;
55539;SDS011;41384;51.418;7.286;2023-02-28T08:13:05;6.55;;;4.25;;
55539;SDS011;41384;51.418;7.286;2023-02-28T08:15:31;7.03;;;3.97;;
55539;SDS011;41384;51.418;7.286;2023-02-28T08:17:56;7.85;;;4.22;;
55539;SDS011;41384;51.418;7.286;2023-02-28T08:20:22;6.50;;;4.20;;
55539;SDS011;41384;51.418;7.286;2023-02-28T08:22:48;6.57;;;3.88;;
55539;SDS011;41384;51.418;7.286;2023-02-28T08:25:14;9.45;;;3.90;;
55539;SDS011;41384;51.418;7.286;2023-02-28T08:27:40;6.65;;;3.90;;
55539;SDS011;41384;51.418;7.286;2023-02-28T08:30:05;6.65;;;4.20;;
55539;SDS011;41384;51.418;7.286;2023-02-28T08:32:32;5.95;;;3.92;;
55539;SDS011;41384;51.418;7.286;2023-02-28T08:34:58;9.77;;;5.00;;
55539;SDS011;41384;51.418;7.286;2023-02-28T08:37:23;7.85;;;4.30;;
55539;SDS011;41384;51.418;7.286;2023-02-28T08:39:49;7.30;;;4.30;;
55539;SDS011;41384;51.418;7.286;2023-02-28T08:42:14;8.13;;;4.70;;
55539;SDS011;41384;51.418;7.286;2023-02-28T08:44:39;9.43;;;4.40;;
55539;SDS011;41384;51.418;7.286;2023-02-28T08:47:05;8.05;;;4.82;;
55539;SDS011;41384;51.418;7.286;2023-02-28T08:49:30;8.70;;;4.65;;
55539;SDS011;41384;51.418;7.286;2023-02-28T08:51:56;6.82;;;4.35;;
55539;SDS011;41384;51.418;7.286;2023-02-28T08:54:22;6.00;;;4.38;;
55539;SDS011;41384;51.418;7.286;2023-02-28T08:56:47;6.45;;;4.43;;
55539;SDS011;41384;51.418;7.286;2023-02-28T08:59:13;8.70;;;4.38;;
55539;SDS011;41384;51.418;7.286;2023-02-28T09:01:38;6.57;;;4.60;;
55539;SDS011;41384;51.418;7.286;2023-02-28T09:04:04;8.57;;;3.90;;
55539;SDS011;41384;51.418;7.286;2023-02-28T09:06:31;8.48;;;4.53;;
55539;SDS011;41384;51.418;7.286;2023-02-28T09:08:57;8.25;;;3.67;;
55539;SDS011;41384;51.418;7.286;2023-02-28T09:11:24;5.43;;;3.90;;
55539;SDS011;41384;51.418;7.286;2023-02-28T09:13:49;9.05;;;3.50;;
55539;SDS011;41384;51.418;7.286;2023-02-28T09:16:15;6.93;;;3.28;;
55539;SDS011;41384;51.418;7.286;2023-02-28T09:18:41;9.73;;;3.88;;
55539;SDS011;41384;51.418;7.286;2023-02-28T09:21:08;6.35;;;3.88;;
55539;SDS011;41384;51.418;7.286;2023-02-28T09:23:35;5.15;;;3.50;;
55539;SDS011;41384;51.418;7.286;2023-02-28T09:26:03;8.18;;;3.40;;
55539;SDS011;41384;51.418;7.286;2023-02-28T09:28:28;8.75;;;3.60;;
55539;SDS011;41384;51.418;7.286;2023-02-28T09:30:54;5.55;;;2.85;;
55539;SDS011;41384;51.418;7.286;2023-02-28T09:33:20;4.97;;;2.90;;
55539;SDS011;41384;51.418;7.286;2023-02-28T09:35:46;3.78;;;3.15;;
55539;SDS011;41384;51.418;7.286;2023-02-28T09:38:15;4.55;;;3.03;;
55539;SDS011;41384;51.418;7.286;2023-02-28T09:40:51;6.18;;;3.17;;
55539;SDS011;41384;51.418;7.286;2023-02-28T09:43:21;10.25;;;3.00;;
55539;SDS011;41384;51.418;7.286;2023-02-28T09:45:49;5.93;;;3.08;;
55539;SDS011;41384;51.418;7.286;2023-02-28T09:48:24;3.30;;;2.50;;
55539;SDS011;41384;51.418;7.286;2023-02-28T09:50:55;6.18;;;2.95;;
55539;SDS011;41384;51.418;7.286;2023-02-28T09:53:35;5.13;;;3.20;;
55539;SDS011;41384;51.418;7.286;2023-02-28T09:56:05;6.55;;;2.92;;
55539;SDS011;41384;51.418;7.286;2023-02-28T09:58:36;4.38;;;2.75;;
55539;SDS011;41384;51.418;7.286;2023-02-28T10:01:12;4.75;;;2.78;;
55539;SDS011;41384;51.418;7.286;2023-02-28T10:03:51;5.15;;;2.97;;
55539;SDS011;41384;51.418;7.286;2023-02-28T10:06:22;4.15;;;2.72;;
55539;SDS011;41384;51.418;7.286;2023-02-28T10:08:58;4.50;;;2.60;;
55539;SDS011;41384;51.418;7.286;2023-02-28T10:11:28;6.43;;;3.17;;
55539;SDS011;41384;51.418;7.286;2023-02-28T10:14:01;4.65;;;2.80;;
55539;SDS011;41384;51.418;7.286;2023-02-28T10:16:38;4.82;;;2.53;;
55539;SDS011;41384;51.418;7.286;2023-02-28T10:29:39;3.88;;;1.70;;
55539;SDS011;41384;51.418;7.286;2023-02-28T10:32:08;2.42;;;1.83;;
55539;SDS011;41384;51.418;7.286;2023-02-28T10:34:39;2.70;;;1.75;;
55539;SDS011;41384;51.418;7.286;2023-02-28T10:37:04;2.38;;;1.75;;
55539;SDS011;41384;51.418;7.286;2023-02-28T10:39:34;3.13;;;1.83;;
55539;SDS011;41384;51.418;7.286;2023-02-28T10:42:04;2.53;;;1.88;;
55539;SDS011;41384;51.418;7.286;2023-02-28T10:44:43;4.57;;;1.77;;
55539;SDS011;41384;51.418;7.286;2023-02-28T10:47:13;2.00;;;1.77;;
55539;SDS011;41384;51.418;7.286;2023-02-28T10:49:41;3.17;;;1.77;;
55539;SDS011;41384;51.418;7.286;2023-02-28T10:52:12;1.95;;;1.42;;
55539;SDS011;41384;51.418;7.286;2023-02-28T10:54:38;4.70;;;1.73;;
55539;SDS011;41384;51.418;7.286;2023-02-28T10:57:17;1.55;;;1.38;;
55539;SDS011;41384;51.418;7.286;2023-02-28T10:59:44;1.58;;;1.45;;
55539;SDS011;41384;51.418;7.286;2023-02-28T11:04:58;2.20;;;1.73;;
55539;SDS011;41384;51.418;7.286;2023-02-28T11:07:23;2.10;;;1.65;;
55539;SDS011;41384;51.418;7.286;2023-02-28T11:09:51;2.20;;;2.00;;
55539;SDS011;41384;51.418;7.286;2023-02-28T11:12:39;2.80;;;1.52;;
55539;SDS011;41384;51.418;7.286;2023-02-28T11:15:27;1.52;;;1.42;;
55539;SDS011;41384;51.418;7.286;2023-02-28T11:17:59;2.03;;;1.65;;
55539;SDS011;41384;51.418;7.286;2023-02-28T11:20:28;2.75;;;1.48;;
55539;SDS011;41384;51.418;7.286;2023-02-28T11:22:57;3.10;;;1.65;;
55539;SDS011;41384;51.418;7.286;2023-02-28T11:25:26;3.00;;;1.40;;
55539;SDS011;41384;51.418;7.286;2023-02-28T11:27:54;2.33;;;1.60;;
55539;SDS011;41384;51.418;7.286;2023-02-28T11:30:23;2.28;;;1.80;;
55539;SDS011;41384;51.418;7.286;2023-02-28T11:32:50;1.83;;;1.63;;
55539;SDS011;41384;51.418;7.286;2023-02-28T11:35:17;2.40;;;1.70;;
55539;SDS011;41384;51.418;7.286;2023-02-28T11:38:00;2.15;;;1.90;;
55539;SDS011;41384;51.418;7.286;2023-02-28T11:40:38;3.17;;;2.17;;
55539;SDS011;41384;51.418;7.286;2023-02-28T11:51:28;3.10;;;1.90;;
55539;SDS011;41384;51.418;7.286;2023-02-28T11:54:08;3.28;;;2.05;;
55539;SDS011;41384;51.418;7.286;2023-02-28T11:56:47;4.88;;;2.15;;
55539;SDS011;41384;51.418;7.286;2023-02-28T12:08:27;3.65;;;2.05;;
55539;SDS011;41384;51.418;7.286;2023-02-28T12:13:46;3.40;;;2.10;;
55539;SDS011;41384;51.418;7.286;2023-02-28T12:24:53;2.65;;;1.95;;
55539;SDS011;41384;51.418;7.286;2023-02-28T12:27:28;3.83;;;2.03;;
55539;SDS011;41384;51.418;7.286;2023-02-28T12:29:58;3.50;;;2.05;;
55539;SDS011;41384;51.418;7.286;2023-02-28T12:32:39;2.97;;;2.10;;
55539;SDS011;41384;51.418;7.286;2023-02-28T12:35:14;2.33;;;1.77;;
55539;SDS011;41384;51.418;7.286;2023-02-28T12:37:50;2.97;;;2.08;;
55539;SDS011;41384;51.418;7.286;2023-02-28T12:40:21;2.10;;;1.88;;
55539;SDS011;41384;51.418;7.286;2023-02-28T12:42:58;4.80;;;2.15;;
55539;SDS011;41384;51.418;7.286;2023-02-28T12:45:31;2.55;;;1.85;;
55539;SDS011;41384;51.418;7.286;2023-02-28T12:48:06;2.53;;;2.33;;
55539;SDS011;41384;51.418;7.286;2023-02-28T12:50:35;2.30;;;2.10;;
55539;SDS011;41384;51.418;7.286;2023-02-28T13:06:52;2.70;;;2.13;;
55539;SDS011;41384;51.418;7.286;2023-02-28T13:09:27;2.67;;;2.40;;
55539;SDS011;41384;51.418;7.286;2023-02-28T13:11:54;3.70;;;2.42;;
55539;SDS011;41384;51.418;7.286;2023-02-28T13:16:59;3.00;;;2.10;;
55539;SDS011;41384;51.418;7.286;2023-02-28T13:19:38;3.95;;;2.65;;
55539;SDS011;41384;51.418;7.286;2023-02-28T13:22:15;3.78;;;2.50;;
55539;SDS011;41384;51.418;7.286;2023-02-28T13:24:46;6.53;;;2.70;;
55539;SDS011;41384;51.418;7.286;2023-02-28T13:27:20;2.42;;;2.13;;
55539;SDS011;41384;51.418;7.286;2023-02-28T13:29:56;4.22;;;2.03;;
55539;SDS011;41384;51.418;7.286;2023-02-28T13:52:45;3.88;;;2.65;;
55539;SDS011;41384;51.418;7.286;2023-02-28T13:55:25;5.22;;;2.40;;
55539;SDS011;41384;51.418;7.286;2023-02-28T13:58:16;2.70;;;2.50;;
55539;SDS011;41384;51.418;7.286;2023-02-28T14:01:22;3.35;;;2.40;;
55539;SDS011;41384;51.418;7.286;2023-02-28T14:04:03;2.50;;;2.30;;
55539;SDS011;41384;51.418;7.286;2023-02-28T14:06:32;2.97;;;2.33;;
55539;SDS011;41384;51.418;7.286;2023-02-28T14:11:33;7.57;;;2.67;;
55539;SDS011;41384;51.418;7.286;2023-02-28T14:14:01;4.93;;;2.45;;
55539;SDS011;41384;51.418;7.286;2023-02-28T14:16:35;3.83;;;2.33;;
55539;SDS011;41384;51.418;7.286;2023-02-28T14:19:13;3.83;;;2.58;;
55539;SDS011;41384;51.418;7.286;2023-02-28T14:22:09;3.78;;;2.30;;
55539;SDS011;41384;51.418;7.286;2023-02-28T14:33:54;3.22;;;2.40;;
55539;SDS011;41384;51.418;7.286;2023-02-28T14:38:58;5.60;;;2.75;;
55539;SDS011;41384;51.418;7.286;2023-02-28T14:41:31;4.22;;;2.72;;
55539;SDS011;41384;51.418;7.286;2023-02-28T14:44:01;6.10;;;2.83;;
55539;SDS011;41384;51.418;7.286;2023-02-28T14:46:38;3.85;;;2.40;;
55539;SDS011;41384;51.418;7.286;2023-02-28T14:49:05;5.68;;;3.17;;
55539;SDS011;41384;51.418;7.286;2023-02-28T14:51:34;12.00;;;3.80;;
55539;SDS011;41384;51.418;7.286;2023-02-28T14:54:00;9.57;;;3.08;;
55539;SDS011;41384;51.418;7.286;2023-02-28T14:56:38;3.28;;;2.50;;
55539;SDS011;41384;51.418;7.286;2023-02-28T14:59:04;4.00;;;3.10;;
55539;SDS011;41384;51.418;7.286;2023-02-28T15:01:30;3.13;;;2.70;;
55539;SDS011;41384;51.418;7.286;2023-02-28T15:04:00;2.67;;;2.35;;
55539;SDS011;41384;51.418;7.286;2023-02-28T15:06:30;7.88;;;2.80;;
55539;SDS011;41384;51.418;7.286;2023-02-28T15:09:15;10.65;;;3.45;;
55539;SDS011;41384;51.418;7.286;2023-02-28T15:11:44;4.00;;;3.13;;
55539;SDS011;41384;51.418;7.286;2023-02-28T15:14:17;6.88;;;3.15;;
55539;SDS011;41384;51.418;7.286;2023-02-28T15:16:45;6.05;;;3.25;;
55539;SDS011;41384;51.418;7.286;2023-02-28T15:19:19;3.40;;;2.97;;
55539;SDS011;41384;51.418;7.286;2023-02-28T15:21:50;4.30;;;2.90;;
55539;SDS011;41384;51.418;7.286;2023-02-28T15:24:23;3.20;;;2.83;;
55539;SDS011;41384;51.418;7.286;2023-02-28T15:26:58;4.10;;;2.95;;
55539;SDS011;41384;51.418;7.286;2023-02-28T15:29:29;2.80;;;2.47;;
55539;SDS011;41384;51.418;7.286;2023-02-28T15:32:00;5.05;;;3.72;;
55539;SDS011;41384;51.418;7.286;2023-02-28T15:37:06;6.07;;;2.88;;
55539;SDS011;41384;51.418;7.286;2023-02-28T15:39:53;4.13;;;2.72;;
55539;SDS011;41384;51.418;7.286;2023-02-28T15:42:20;4.57;;;2.67;;
55539;SDS011;41384;51.418;7.286;2023-02-28T15:44:47;3.28;;;2.85;;
55539;SDS011;41384;51.418;7.286;2023-02-28T15:47:16;4.25;;;2.90;;
55539;SDS011;41384;51.418;7.286;2023-02-28T15:49:53;7.20;;;2.80;;
55539;SDS011;41384;51.418;7.286;2023-02-28T15:52:24;4.65;;;2.70;;
55539;SDS011;41384;51.418;7.286;2023-02-28T15:54:53;6.95;;;2.80;;
55539;SDS011;41384;51.418;7.286;2023-02-28T15:57:20;4.32;;;2.80;;
55539;SDS011;41384;51.418;7.286;2023-02-28T15:59:55;6.40;;;3.22;;
55539;SDS011;41384;51.418;7.286;2023-02-28T16:02:32;3.65;;;3.00;;
55539;SDS011;41384;51.418;7.286;2023-02-28T16:05:02;4.10;;;3.25;;
55539;SDS011;41384;51.418;7.286;2023-02-28T16:07:42;5.07;;;2.95;;
55539;SDS011;41384;51.418;7.286;2023-02-28T16:10:09;5.65;;;2.97;;
55539;SDS011;41384;51.418;7.286;2023-02-28T16:12:37;5.35;;;2.67;;
55539;SDS011;41384;51.418;7.286;2023-02-28T16:15:23;3.65;;;2.88;;
55539;SDS011;41384;51.418;7.286;2023-02-28T16:17:53;4.75;;;2.67;;
55539;SDS011;41384;51.418;7.286;2023-02-28T16:20:20;3.95;;;2.83;;
55539;SDS011;41384;51.418;7.286;2023-02-28T16:22:51;4.40;;;2.78;;
55539;SDS011;41384;51.418;7.286;2023-02-28T16:25:18;7.60;;;3.10;;
55539;SDS011;41384;51.418;7.286;2023-02-28T16:27:48;4.05;;;2.95;;
55539;SDS011;41384;51.418;7.286;2023-02-28T16:30:20;4.38;;;3.13;;
55539;SDS011;41384;51.418;7.286;2023-02-28T16:32:47;4.13;;;2.90;;
55539;SDS011;41384;51.418;7.286;2023-02-28T16:35:13;5.05;;;2.80;;
55539;SDS011;41384;51.418;7.286;2023-02-28T16:37:39;3.55;;;2.95;;
55539;SDS011;41384;51.418;7.286;2023-02-28T16:40:05;4.65;;;2.95;;
55539;SDS011;41384;51.418;7.286;2023-02-28T16:42:31;5.18;;;2.85;;
55539;SDS011;41384;51.418;7.286;2023-02-28T16:44:56;5.15;;;2.88;;
55539;SDS011;41384;51.418;7.286;2023-02-28T16:47:23;4.25;;;3.25;;
55539;SDS011;41384;51.418;7.286;2023-02-28T16:49:48;3.85;;;3.03;;
55539;SDS011;41384;51.418;7.286;2023-02-28T16:52:14;5.63;;;3.10;;
55539;SDS011;41384;51.418;7.286;2023-02-28T16:54:40;4.78;;;2.65;;
55539;SDS011;41384;51.418;7.286;2023-02-28T16:57:08;5.05;;;2.97;;
55539;SDS011;41384;51.418;7.286;2023-02-28T16:59:44;5.72;;;3.10;;
55539;SDS011;41384;51.418;7.286;2023-02-28T17:02:16;6.18;;;3.42;;
55539;SDS011;41384;51.418;7.286;2023-02-28T17:04:44;11.32;;;3.85;;
55539;SDS011;41384;51.418;7.286;2023-02-28T17:07:12;5.20;;;2.90;;
55539;SDS011;41384;51.418;7.286;2023-02-28T17:09:41;13.52;;;3.80;;
55539;SDS011;41384;51.418;7.286;2023-02-28T17:12:06;29.33;;;5.18;;